Time;durP1;ratioP1;P1;durP2;ratioP2;P2;SDS_P1;SDS_P2;PMS_P1;PMS_P2;Temp;Humidity;BMP_temperature;BMP_pressure;BME280_temperature;BME280_humidity;BME280_pressure;Samples;Min_cycle;Max_cycle;Signal;HPM_P1;HPM_P2
2021/07/30 00:00:30;;;;;;;10.77;9.13;;;14.20;99.90;;;;;;5067992;28;20582;-70
2021/07/30 00:02:57;;;;;;;10.17;8.97;;;14.20;99.90;;;;;;5068773;28;20534;-70
2021/07/30 00:05:23;;;;;;;10.47;8.30;;;14.20;99.90;;;;;;5068519;28;20497;-70
2021/07/30 00:07:50;;;;;;;11.50;9.50;;;14.20;99.90;;;;;;5054536;28;20466;-69
2021/07/30 00:10:19;;;;;;;9.97;8.83;;;14.20;99.90;;;;;;5040342;28;20886;-69
2021/07/30 00:12:45;;;;;;;10.40;9.30;;;14.10;99.90;;;;;;5048810;28;20738;-69
2021/07/30 00:15:12;;;;;;;10.50;9.40;;;14.10;99.90;;;;;;5052221;28;20918;-69
2021/07/30 00:17:39;;;;;;;11.10;9.43;;;14.00;99.90;;;;;;5051163;28;20524;-70
2021/07/30 00:20:07;;;;;;;10.33;8.97;;;14.10;99.90;;;;;;5050552;28;20497;-69
2021/07/30 00:22:34;;;;;;;13.13;10.70;;;14.10;99.90;;;;;;5047801;28;20514;-69
2021/07/30 00:25:01;;;;;;;11.57;9.77;;;14.00;99.90;;;;;;5048165;28;21234;-69
2021/07/30 00:27:30;;;;;;;10.70;9.60;;;14.00;99.90;;;;;;5048134;28;20551;-69
2021/07/30 00:29:57;;;;;;;10.67;8.60;;;14.00;99.90;;;;;;5048112;28;20439;-70
2021/07/30 00:32:23;;;;;;;11.70;10.50;;;14.00;99.90;;;;;;5048420;28;20447;-67
2021/07/30 00:34:50;;;;;;;10.77;9.67;;;13.90;99.90;;;;;;5047675;28;20440;-69
2021/07/30 00:37:17;;;;;;;12.17;10.50;;;13.80;99.90;;;;;;5041135;28;20499;-69
2021/07/30 00:39:44;;;;;;;10.57;9.47;;;13.80;99.90;;;;;;5046986;28;20494;-70
2021/07/30 00:42:11;;;;;;;14.43;9.00;;;13.80;99.90;;;;;;5055831;28;20439;-69
2021/07/30 00:44:39;;;;;;;10.20;8.97;;;13.90;99.90;;;;;;5047269;28;20491;-69
2021/07/30 00:47:06;;;;;;;11.37;9.60;;;13.90;99.90;;;;;;5047955;28;20455;-69
2021/07/30 00:49:33;;;;;;;10.60;9.10;;;13.80;99.90;;;;;;5047750;28;20551;-68
2021/07/30 00:52:00;;;;;;;11.63;9.70;;;13.80;99.90;;;;;;5048300;28;20443;-69
2021/07/30 00:54:27;;;;;;;12.03;9.93;;;13.80;99.90;;;;;;5047751;28;20526;-69
2021/07/30 00:56:55;;;;;;;13.00;9.50;;;13.90;99.90;;;;;;5047664;28;20448;-68
2021/07/30 00:59:22;;;;;;;11.20;10.00;;;13.90;99.90;;;;;;5047377;28;20459;-69
2021/07/30 01:01:51;;;;;;;10.60;8.93;;;13.80;99.90;;;;;;5047570;28;20440;-69
2021/07/30 01:04:19;;;;;;;11.50;10.30;;;13.80;99.90;;;;;;5047843;28;20490;-68
2021/07/30 01:06:46;;;;;;;11.20;10.03;;;13.80;99.90;;;;;;5047460;28;20947;-69
2021/07/30 01:09:13;;;;;;;10.00;9.00;;;13.70;99.90;;;;;;5038825;28;21191;-70
2021/07/30 01:11:40;;;;;;;13.47;9.57;;;13.70;99.90;;;;;;5047469;28;20520;-69
2021/07/30 01:14:09;;;;;;;9.50;8.07;;;13.70;99.90;;;;;;5047788;28;20438;-69
2021/07/30 01:16:38;;;;;;;11.43;10.23;;;13.60;99.90;;;;;;5047677;28;20452;-69
2021/07/30 01:19:12;;;;;;;11.93;9.00;;;13.60;99.90;;;;;;5047151;28;20504;-69
2021/07/30 01:21:42;;;;;;;9.83;8.80;;;13.50;99.90;;;;;;5046503;28;20471;-68
2021/07/30 01:24:10;;;;;;;11.27;9.43;;;13.50;99.90;;;;;;5047729;28;20479;-69
2021/07/30 01:26:37;;;;;;;11.67;9.50;;;13.50;99.90;;;;;;5047230;28;20460;-69
2021/07/30 01:29:04;;;;;;;13.57;10.10;;;13.50;99.90;;;;;;5047345;28;20452;-68
2021/07/30 01:31:31;;;;;;;10.93;9.07;;;13.40;99.90;;;;;;5047190;28;20448;-69
2021/07/30 01:33:58;;;;;;;10.50;9.27;;;13.40;99.90;;;;;;5047520;28;20501;-68
2021/07/30 01:36:25;;;;;;;13.20;10.27;;;13.40;99.90;;;;;;5061930;28;20439;-68
2021/07/30 01:38:52;;;;;;;9.43;8.37;;;13.40;99.90;;;;;;5044163;28;20464;-68
2021/07/30 01:41:20;;;;;;;12.33;9.30;;;13.30;99.90;;;;;;5044996;28;20459;-69
2021/07/30 01:43:47;;;;;;;14.80;9.60;;;13.30;99.90;;;;;;5053240;28;20456;-69
2021/07/30 01:46:14;;;;;;;9.03;8.07;;;13.20;99.90;;;;;;5054049;28;20479;-68
2021/07/30 01:48:41;;;;;;;11.03;9.90;;;13.20;99.90;;;;;;5053339;28;20493;-68
2021/07/30 01:51:08;;;;;;;10.10;9.10;;;13.20;99.90;;;;;;5053276;28;20479;-68
2021/07/30 01:53:35;;;;;;;12.93;11.57;;;13.30;99.90;;;;;;5053724;28;20484;-68
2021/07/30 01:56:04;;;;;;;11.83;9.60;;;13.20;99.90;;;;;;5053911;28;20427;-68
2021/07/30 01:58:33;;;;;;;10.67;9.57;;;13.30;99.90;;;;;;5054095;28;20460;-68
2021/07/30 02:01:01;;;;;;;9.93;8.90;;;13.30;99.90;;;;;;5053498;28;20443;-68
2021/07/30 02:03:28;;;;;;;10.97;9.80;;;13.20;99.90;;;;;;5053540;28;20522;-68
2021/07/30 02:05:54;;;;;;;12.33;8.90;;;13.10;99.90;;;;;;5053262;28;20472;-68
2021/07/30 02:08:22;;;;;;;10.53;9.37;;;13.10;99.90;;;;;;5053501;28;20869;-68
2021/07/30 02:10:49;;;;;;;11.23;9.50;;;13.10;99.90;;;;;;5053241;28;20467;-68
2021/07/30 02:16:01;;;;;;;15.83;9.63;;;13.10;99.90;;;;;;5053416;28;20550;-68
2021/07/30 02:18:28;;;;;;;10.47;9.40;;;13.10;99.90;;;;;;5053217;28;20465;-68
2021/07/30 02:20:55;;;;;;;9.23;8.33;;;13.10;99.90;;;;;;5052631;28;20452;-68
2021/07/30 02:23:22;;;;;;;10.17;9.17;;;13.00;99.90;;;;;;5053473;28;20439;-68
2021/07/30 02:25:49;;;;;;;14.80;10.80;;;13.00;99.90;;;;;;5053136;28;20468;-68
2021/07/30 02:28:16;;;;;;;12.23;9.83;;;13.00;99.90;;;;;;5053082;28;20809;-68
2021/07/30 02:30:42;;;;;;;13.70;10.90;;;13.00;99.90;;;;;;5052470;28;20996;-69
2021/07/30 02:33:10;;;;;;;16.60;10.90;;;13.00;99.90;;;;;;5053065;28;20532;-69
2021/07/30 02:35:37;;;;;;;15.90;10.90;;;13.00;99.90;;;;;;5053142;28;20432;-69
2021/07/30 02:38:04;;;;;;;12.77;11.00;;;13.10;99.90;;;;;;5053046;28;20561;-68
2021/07/30 02:40:31;;;;;;;11.00;9.40;;;13.00;99.90;;;;;;5052946;28;20518;-68
2021/07/30 02:42:58;;;;;;;12.43;10.00;;;13.00;99.90;;;;;;5053163;28;20436;-69
2021/07/30 02:45:25;;;;;;;12.37;10.10;;;13.00;99.90;;;;;;5052618;28;20858;-68
2021/07/30 02:47:51;;;;;;;12.00;9.57;;;13.00;99.90;;;;;;5052727;28;20460;-69
2021/07/30 02:50:20;;;;;;;15.67;9.97;;;12.90;99.90;;;;;;5052603;28;20462;-70
2021/07/30 02:52:47;;;;;;;10.87;9.50;;;12.90;99.90;;;;;;5052678;28;20446;-69
2021/07/30 02:55:14;;;;;;;11.53;10.17;;;12.80;99.90;;;;;;5052625;28;21104;-69
2021/07/30 02:57:40;;;;;;;10.43;9.33;;;12.90;99.90;;;;;;5052264;28;20551;-69
2021/07/30 03:00:08;;;;;;;12.83;10.87;;;12.90;99.90;;;;;;5052187;28;20447;-69
2021/07/30 03:02:35;;;;;;;12.63;9.73;;;12.90;99.90;;;;;;5052458;28;20526;-69
2021/07/30 03:05:02;;;;;;;11.73;10.17;;;12.80;99.90;;;;;;5052185;28;21060;-68
2021/07/30 03:07:30;;;;;;;13.50;11.40;;;12.80;99.90;;;;;;5052189;28;20436;-69
2021/07/30 03:09:57;;;;;;;11.20;10.03;;;12.80;99.90;;;;;;5052423;28;20436;-70
2021/07/30 03:12:24;;;;;;;11.70;10.17;;;12.70;99.90;;;;;;5052832;28;20438;-69
2021/07/30 03:14:51;;;;;;;11.33;10.13;;;12.70;99.90;;;;;;5052433;28;20443;-70
2021/07/30 03:17:17;;;;;;;11.97;10.27;;;12.70;99.90;;;;;;5052151;28;20436;-69
2021/07/30 03:19:45;;;;;;;12.77;9.43;;;12.70;99.90;;;;;;5051889;28;20594;-69
2021/07/30 03:22:11;;;;;;;12.90;10.77;;;12.70;99.90;;;;;;5052514;28;20440;-69
2021/07/30 03:24:40;;;;;;;13.13;10.00;;;12.60;99.90;;;;;;5051951;28;20849;-69
2021/07/30 03:27:07;;;;;;;12.70;10.00;;;12.70;99.90;;;;;;5052230;28;20442;-70
2021/07/30 03:29:34;;;;;;;11.17;9.93;;;12.60;99.90;;;;;;5051755;28;20844;-70
2021/07/30 03:32:00;;;;;;;14.87;11.77;;;12.60;99.90;;;;;;5053225;28;20555;-70
2021/07/30 03:34:32;;;;;;;12.67;10.63;;;12.70;99.90;;;;;;5055648;28;20466;-70
2021/07/30 03:36:59;;;;;;;12.03;9.83;;;12.70;99.90;;;;;;5055378;28;20440;-69
2021/07/30 03:39:26;;;;;;;11.53;10.33;;;12.60;99.90;;;;;;5051404;28;20559;-69
2021/07/30 03:41:54;;;;;;;10.23;9.10;;;12.60;99.90;;;;;;5051813;28;20440;-69
2021/07/30 03:44:21;;;;;;;11.17;9.50;;;12.70;99.90;;;;;;5051902;28;20439;-69
2021/07/30 03:46:48;;;;;;;11.47;10.27;;;12.60;99.90;;;;;;5051490;28;20571;-69
2021/07/30 03:49:15;;;;;;;12.90;9.93;;;12.60;99.90;;;;;;5051063;28;20466;-69
2021/07/30 03:51:42;;;;;;;13.10;9.50;;;12.60;99.90;;;;;;5051563;28;20443;-69
2021/07/30 03:54:10;;;;;;;12.83;10.70;;;12.50;99.90;;;;;;5051386;28;20463;-69
2021/07/30 03:56:39;;;;;;;10.07;8.50;;;12.50;99.90;;;;;;5050549;28;20435;-70
2021/07/30 03:59:07;;;;;;;12.10;9.50;;;12.60;99.90;;;;;;5051347;28;20834;-69
2021/07/30 04:01:34;;;;;;;10.30;8.90;;;12.60;99.90;;;;;;5050900;28;20436;-69
2021/07/30 04:04:01;;;;;;;10.93;9.23;;;12.50;99.90;;;;;;5051274;28;20479;-69
2021/07/30 04:06:28;;;;;;;12.87;10.87;;;12.60;99.90;;;;;;5051067;28;20475;-69
2021/07/30 04:08:55;;;;;;;12.37;10.10;;;12.60;99.90;;;;;;5051024;28;20456;-69
2021/07/30 04:11:22;;;;;;;13.70;10.90;;;12.70;99.90;;;;;;5051064;28;20466;-69
2021/07/30 04:13:49;;;;;;;11.50;10.30;;;12.70;99.90;;;;;;5051261;28;20439;-68
2021/07/30 04:16:17;;;;;;;12.07;9.80;;;12.70;99.90;;;;;;5050862;28;21083;-69
2021/07/30 04:18:44;;;;;;;11.50;8.97;;;12.70;99.90;;;;;;5050704;28;20902;-69
2021/07/30 04:21:11;;;;;;;9.70;8.57;;;12.70;99.90;;;;;;5050565;28;20452;-69
2021/07/30 04:23:38;;;;;;;12.73;8.70;;;12.70;99.90;;;;;;5050980;28;20442;-69
2021/07/30 04:26:05;;;;;;;10.50;9.07;;;12.60;99.90;;;;;;5050746;28;20490;-68
2021/07/30 04:28:32;;;;;;;14.90;9.73;;;12.60;99.90;;;;;;5050779;28;20546;-69
2021/07/30 04:31:03;;;;;;;12.30;10.27;;;12.70;99.90;;;;;;5050629;28;20444;-68
2021/07/30 04:33:31;;;;;;;10.00;8.83;;;12.70;99.90;;;;;;5050572;28;20436;-69
2021/07/30 04:35:58;;;;;;;12.53;9.47;;;12.70;99.90;;;;;;5050453;28;20439;-69
2021/07/30 04:38:25;;;;;;;10.43;9.43;;;12.80;99.90;;;;;;5050706;28;20468;-68
2021/07/30 04:40:52;;;;;;;11.23;9.43;;;12.90;99.90;;;;;;5050064;28;20527;-69
2021/07/30 04:43:18;;;;;;;14.50;12.23;;;13.00;99.90;;;;;;5050301;28;20479;-69
2021/07/30 04:45:45;;;;;;;11.43;9.83;;;13.00;99.90;;;;;;5050325;28;20503;-69
2021/07/30 04:48:12;;;;;;;10.47;9.40;;;13.10;99.90;;;;;;5050145;28;20954;-68
2021/07/30 04:50:40;;;;;;;11.80;9.70;;;13.10;99.90;;;;;;5049768;28;20527;-69
2021/07/30 04:53:07;;;;;;;12.00;10.73;;;13.20;99.90;;;;;;5051148;28;20466;-69
2021/07/30 04:55:35;;;;;;;13.40;9.10;;;13.30;99.90;;;;;;5051132;28;20535;-68
2021/07/30 04:58:02;;;;;;;12.00;10.00;;;13.30;99.90;;;;;;5050262;28;20474;-68
2021/07/30 05:00:29;;;;;;;10.80;9.13;;;13.30;99.90;;;;;;5049245;28;20450;-68
2021/07/30 05:02:56;;;;;;;10.80;9.70;;;13.40;99.90;;;;;;5049724;28;20439;-68
2021/07/30 05:05:23;;;;;;;11.73;8.70;;;13.40;99.90;;;;;;5049589;28;20474;-68
2021/07/30 05:07:51;;;;;;;13.80;11.17;;;13.50;99.90;;;;;;5049483;28;20974;-69
2021/07/30 05:10:18;;;;;;;10.90;9.50;;;13.50;99.90;;;;;;5049491;28;20873;-68
2021/07/30 05:12:45;;;;;;;11.00;9.80;;;13.60;99.90;;;;;;5049955;28;20444;-69
2021/07/30 05:15:13;;;;;;;11.97;10.27;;;13.60;99.90;;;;;;5049682;28;20444;-69
2021/07/30 05:17:40;;;;;;;11.27;10.17;;;13.70;99.90;;;;;;5049400;28;20436;-68
2021/07/30 05:20:08;;;;;;;12.73;11.20;;;13.70;99.90;;;;;;5049287;28;20450;-68
2021/07/30 05:22:35;;;;;;;12.03;10.83;;;13.80;99.90;;;;;;5049726;28;20444;-68
2021/07/30 05:25:04;;;;;;;11.40;10.27;;;13.90;99.90;;;;;;5049828;28;20467;-68
2021/07/30 05:27:30;;;;;;;12.17;10.90;;;14.00;99.90;;;;;;5049525;28;20434;-68
2021/07/30 05:29:58;;;;;;;12.13;10.93;;;13.90;99.90;;;;;;5049286;28;20440;-68
2021/07/30 05:32:25;;;;;;;14.13;10.70;;;14.10;99.90;;;;;;5049658;28;20461;-68
2021/07/30 05:34:52;;;;;;;11.93;9.90;;;14.10;99.90;;;;;;5049486;28;20977;-68
2021/07/30 05:37:19;;;;;;;13.53;11.57;;;14.20;99.90;;;;;;5049821;28;20524;-68
2021/07/30 05:39:46;;;;;;;11.73;10.63;;;14.30;99.90;;;;;;5049174;28;20456;-68
2021/07/30 05:42:14;;;;;;;12.53;10.43;;;14.40;99.90;;;;;;5049523;28;20444;-68
2021/07/30 05:44:41;;;;;;;11.37;10.17;;;14.50;99.90;;;;;;5049483;28;20440;-68
2021/07/30 05:47:08;;;;;;;12.50;9.97;;;14.50;99.90;;;;;;5049379;28;21001;-69
2021/07/30 05:49:35;;;;;;;12.10;10.80;;;14.60;99.90;;;;;;5048995;28;20554;-68
2021/07/30 05:52:02;;;;;;;11.77;10.20;;;14.70;99.90;;;;;;5049506;28;20436;-68
2021/07/30 05:54:29;;;;;;;10.67;9.50;;;14.80;99.90;;;;;;5049320;28;20447;-69
2021/07/30 05:56:56;;;;;;;11.03;9.93;;;14.90;99.90;;;;;;5049380;28;20539;-68
2021/07/30 05:59:25;;;;;;;12.70;11.30;;;15.00;99.90;;;;;;5048766;28;20456;-69
2021/07/30 06:01:51;;;;;;;13.57;9.93;;;15.10;99.90;;;;;;5049403;28;20518;-68
2021/07/30 06:04:18;;;;;;;12.07;9.50;;;15.30;99.90;;;;;;5049328;28;20440;-69
2021/07/30 06:06:45;;;;;;;12.53;10.43;;;15.40;99.90;;;;;;5049028;28;20474;-68
2021/07/30 06:09:13;;;;;;;13.23;9.53;;;15.50;99.90;;;;;;5049190;28;20478;-68
2021/07/30 06:11:40;;;;;;;10.90;9.37;;;15.60;99.90;;;;;;5049403;28;20436;-68
2021/07/30 06:14:06;;;;;;;12.00;9.73;;;15.70;99.90;;;;;;5049562;28;20850;-68
2021/07/30 06:16:35;;;;;;;12.60;9.90;;;15.80;99.90;;;;;;5049073;28;20531;-69
2021/07/30 06:19:01;;;;;;;10.90;8.50;;;15.90;99.90;;;;;;5050018;28;20511;-69
2021/07/30 06:21:30;;;;;;;9.40;8.50;;;16.00;99.90;;;;;;5053319;28;20444;-69
2021/07/30 06:23:57;;;;;;;9.77;8.10;;;16.10;99.90;;;;;;5053213;28;20790;-69
2021/07/30 06:26:24;;;;;;;10.07;8.80;;;16.20;99.90;;;;;;5052893;28;21084;-68
2021/07/30 06:28:51;;;;;;;11.90;8.17;;;16.40;99.90;;;;;;5052806;28;20542;-70
2021/07/30 06:31:18;;;;;;;9.20;7.90;;;16.50;99.90;;;;;;5052850;28;20431;-68
2021/07/30 06:33:46;;;;;;;8.80;7.90;;;16.60;99.90;;;;;;5052661;28;20440;-68
2021/07/30 06:36:17;;;;;;;9.60;8.30;;;16.60;99.90;;;;;;5052557;28;20436;-68
2021/07/30 06:38:44;;;;;;;9.27;8.23;;;16.70;99.90;;;;;;5052339;28;20462;-68
2021/07/30 06:41:14;;;;;;;7.97;6.87;;;16.80;99.90;;;;;;5052304;28;20451;-69
2021/07/30 06:43:41;;;;;;;7.33;6.60;;;16.90;99.90;;;;;;5052228;28;20455;-69
2021/07/30 06:46:08;;;;;;;10.10;7.47;;;17.10;99.90;;;;;;5052316;28;20557;-69
2021/07/30 06:48:35;;;;;;;8.50;6.33;;;17.20;99.90;;;;;;5052384;28;20535;-69
2021/07/30 06:51:03;;;;;;;9.53;6.50;;;17.30;99.90;;;;;;5052038;28;20442;-69
2021/07/30 06:53:30;;;;;;;7.20;6.17;;;17.40;99.90;;;;;;5052593;28;20432;-69
2021/07/30 06:55:57;;;;;;;6.73;6.03;;;17.50;99.90;;;;;;5052282;28;20434;-69
2021/07/30 06:58:24;;;;;;;7.00;6.20;;;17.60;99.90;;;;;;5052260;28;20901;-69
2021/07/30 07:00:50;;;;;;;7.27;5.80;;;17.70;99.90;;;;;;5051707;28;20440;-69
2021/07/30 07:03:17;;;;;;;7.17;6.47;;;17.80;99.90;;;;;;5052329;28;20592;-69
2021/07/30 07:05:44;;;;;;;6.63;6.03;;;18.00;99.90;;;;;;5052331;28;20432;-69
2021/07/30 07:08:13;;;;;;;9.33;6.80;;;18.10;99.90;;;;;;5052223;28;20555;-69
2021/07/30 07:10:40;;;;;;;6.87;5.90;;;18.20;99.90;;;;;;5052123;28;20436;-69
2021/07/30 07:13:07;;;;;;;8.03;6.50;;;18.30;99.90;;;;;;5051959;28;20501;-69
2021/07/30 07:15:33;;;;;;;7.03;6.13;;;18.50;99.90;;;;;;5052005;28;20439;-69
2021/07/30 07:18:00;;;;;;;7.87;5.97;;;18.60;99.90;;;;;;5051504;28;20448;-68
2021/07/30 07:20:27;;;;;;;8.47;6.00;;;18.70;99.90;;;;;;5051464;28;20451;-69
2021/07/30 07:22:54;;;;;;;6.40;5.80;;;18.80;99.90;;;;;;5051813;28;20531;-69
2021/07/30 07:25:23;;;;;;;9.40;6.20;;;18.90;99.90;;;;;;5051719;28;20527;-69
2021/07/30 07:27:49;;;;;;;5.90;5.23;;;19.00;99.90;;;;;;5051505;28;20563;-69
2021/07/30 07:30:16;;;;;;;6.93;6.17;;;19.20;99.90;;;;;;5051075;28;20442;-69
2021/07/30 07:32:43;;;;;;;6.07;5.47;;;19.30;99.90;;;;;;5051658;28;20440;-69
2021/07/30 07:35:11;;;;;;;7.50;5.87;;;19.40;99.90;;;;;;5051653;28;20605;-69
2021/07/30 07:37:37;;;;;;;6.80;5.80;;;19.50;99.90;;;;;;5051499;28;20438;-69
2021/07/30 07:40:06;;;;;;;7.17;5.73;;;19.60;99.90;;;;;;5051298;28;20523;-69
2021/07/30 07:42:35;;;;;;;6.20;5.60;;;19.70;99.90;;;;;;5051708;28;20436;-69
2021/07/30 07:45:02;;;;;;;8.77;6.30;;;19.80;99.90;;;;;;5051418;28;20436;-69
2021/07/30 07:47:29;;;;;;;7.47;5.47;;;19.80;99.90;;;;;;5051671;28;20480;-69
2021/07/30 07:49:56;;;;;;;7.53;5.90;;;20.00;99.90;;;;;;5051798;28;20464;-69
2021/07/30 07:52:23;;;;;;;10.10;5.67;;;20.10;99.90;;;;;;5054227;28;20810;-69
2021/07/30 07:54:49;;;;;;;7.20;5.60;;;20.30;99.90;;;;;;5051758;28;20515;-68
2021/07/30 07:57:16;;;;;;;7.70;5.93;;;20.40;99.90;;;;;;5051415;28;20945;-69
2021/07/30 07:59:45;;;;;;;12.20;6.67;;;20.50;99.90;;;;;;5051284;28;20474;-69
2021/07/30 08:02:11;;;;;;;8.98;6.88;;;20.60;99.90;;;;;;5050481;28;20539;-69
2021/07/30 08:04:38;;;;;;;11.03;5.73;;;20.80;99.90;;;;;;5051529;28;20201;-69
2021/07/30 08:07:07;;;;;;;8.40;5.67;;;20.90;99.90;;;;;;5051126;28;20578;-69
2021/07/30 08:09:34;;;;;;;7.90;6.20;;;21.00;99.90;;;;;;5050891;28;20859;-69
2021/07/30 08:12:03;;;;;;;8.57;6.33;;;21.10;99.90;;;;;;5051080;28;20456;-70
2021/07/30 08:14:30;;;;;;;11.60;7.00;;;21.20;99.90;;;;;;5051742;28;20475;-71
2021/07/30 08:16:59;;;;;;;6.20;5.60;;;21.30;99.90;;;;;;5051189;28;20440;-70
2021/07/30 08:19:26;;;;;;;8.23;6.00;;;21.50;99.90;;;;;;5050585;28;20487;-70
2021/07/30 08:21:53;;;;;;;10.00;6.40;;;21.60;99.90;;;;;;5050916;28;20538;-71
2021/07/30 08:24:20;;;;;;;6.87;5.93;;;21.80;99.90;;;;;;5050964;28;20456;-70
2021/07/30 08:26:47;;;;;;;9.10;6.43;;;21.90;99.90;;;;;;5051016;28;20491;-70
2021/07/30 08:29:13;;;;;;;7.70;5.60;;;22.20;99.90;;;;;;5050219;28;20468;-71
2021/07/30 08:31:40;;;;;;;8.93;6.97;;;22.30;99.90;;;;;;5054933;28;20460;-70
2021/07/30 08:34:08;;;;;;;8.37;6.30;;;22.30;99.90;;;;;;5058684;28;20986;-70
2021/07/30 08:36:35;;;;;;;13.07;6.50;;;22.30;99.90;;;;;;5053705;28;20448;-71
2021/07/30 08:39:02;;;;;;;7.73;6.43;;;22.30;99.90;;;;;;5060416;28;20468;-70
2021/07/30 08:41:29;;;;;;;11.00;6.40;;;22.30;99.90;;;;;;5057763;28;20471;-69
2021/07/30 08:43:57;;;;;;;8.00;6.70;;;22.40;99.90;;;;;;5050451;28;20468;-68
2021/07/30 08:46:25;;;;;;;10.50;6.23;;;22.50;99.90;;;;;;5050507;28;20447;-68
2021/07/30 08:48:53;;;;;;;11.77;6.53;;;22.70;99.90;;;;;;5049954;28;20472;-70
2021/07/30 08:51:22;;;;;;;7.33;5.60;;;22.70;99.90;;;;;;5050019;28;20482;-67
2021/07/30 08:53:50;;;;;;;6.23;5.40;;;22.90;99.90;;;;;;5050016;28;20898;-70
2021/07/30 08:56:18;;;;;;;8.27;5.97;;;23.10;99.90;;;;;;5049909;28;20934;-69
2021/07/30 08:58:45;;;;;;;7.60;6.13;;;23.20;99.90;;;;;;5050365;28;20468;-70
2021/07/30 09:01:12;;;;;;;7.13;5.90;;;23.30;99.90;;;;;;5049954;28;20830;-71
2021/07/30 09:03:39;;;;;;;7.10;5.33;;;23.50;99.90;;;;;;5049851;28;20448;-71
2021/07/30 09:06:13;;;;;;;9.07;5.50;;;23.60;99.90;;;;;;5049817;28;20477;-70
2021/07/30 09:08:42;;;;;;;6.93;5.90;;;23.80;99.90;;;;;;5049809;28;20475;-70
2021/07/30 09:11:09;;;;;;;7.80;5.37;;;24.00;99.90;;;;;;5049628;28;20448;-70
2021/07/30 09:13:36;;;;;;;7.80;5.83;;;24.20;99.90;;;;;;5046661;28;20453;-70
2021/07/30 09:16:05;;;;;;;7.10;5.40;;;24.20;99.90;;;;;;5047746;28;21421;-69
2021/07/30 09:18:37;;;;;;;9.30;5.53;;;24.40;99.90;;;;;;5048173;28;20467;-70
2021/07/30 09:21:24;;;;;;;6.60;5.60;;;24.50;99.90;;;;;;5060786;28;20913;-70
2021/07/30 09:23:57;;;;;;;5.97;5.30;;;24.50;99.90;;;;;;5064377;28;20442;-70
2021/07/30 09:26:39;;;;;;;6.73;5.20;;;24.70;99.90;;;;;;5050524;28;20526;-71
2021/07/30 09:29:08;;;;;;;5.97;5.37;;;25.00;99.90;;;;;;5050548;28;20546;-70
2021/07/30 09:31:46;;;;;;;7.10;5.53;;;25.00;99.90;;;;;;5049850;28;20460;-71
2021/07/30 09:34:21;;;;;;;8.10;4.93;;;25.10;99.90;;;;;;5049573;28;20550;-70
2021/07/30 09:36:59;;;;;;;5.80;5.20;;;25.30;99.90;;;;;;5046243;28;20470;-71
2021/07/30 09:39:36;;;;;;;6.30;5.63;;;25.20;99.90;;;;;;5052027;28;21132;-69
2021/07/30 09:42:08;;;;;;;7.90;5.07;;;25.30;99.90;;;;;;5045372;28;20460;-70
2021/07/30 09:44:36;;;;;;;7.23;5.03;;;25.40;99.90;;;;;;5052557;28;20454;-71
2021/07/30 09:47:13;;;;;;;5.40;4.90;;;25.30;99.90;;;;;;5053070;28;20490;-70
2021/07/30 09:49:51;;;;;;;6.97;5.03;;;25.40;99.90;;;;;;5049869;28;20523;-70
2021/07/30 09:52:20;;;;;;;7.33;5.87;;;25.50;99.90;;;;;;5046828;28;20478;-70
2021/07/30 09:54:50;;;;;;;9.00;5.57;;;25.60;99.90;;;;;;5061141;28;20450;-70
2021/07/30 09:57:19;;;;;;;6.70;5.30;;;25.50;99.90;;;;;;5063539;28;20423;-70
2021/07/30 09:59:46;;;;;;;6.23;5.10;;;25.60;99.90;;;;;;5049392;28;20481;-70
2021/07/30 10:02:16;;;;;;;7.63;5.60;;;26.00;99.90;;;;;;5054081;28;20459;-70
2021/07/30 10:04:50;;;;;;;6.20;5.27;;;26.70;99.90;;;;;;5059357;28;20890;-70
2021/07/30 10:07:19;;;;;;;6.93;5.63;;;27.20;99.90;;;;;;5047759;28;20494;-71
2021/07/30 10:09:53;;;;;;;6.60;5.67;;;27.70;99.90;;;;;;5057128;28;21199;-70
2021/07/30 10:12:20;;;;;;;5.50;5.00;;;28.20;98.00;;;;;;5054868;28;20454;-70
2021/07/30 10:14:48;;;;;;;6.87;5.37;;;28.70;98.20;;;;;;5059875;28;20447;-71
2021/07/30 10:17:17;;;;;;;5.53;4.93;;;29.20;98.90;;;;;;5058704;28;20464;-71
2021/07/30 10:19:45;;;;;;;6.30;5.47;;;29.60;96.80;;;;;;5051285;28;20998;-71
2021/07/30 10:22:14;;;;;;;6.63;5.63;;;29.50;97.00;;;;;;5051642;28;20483;-68
2021/07/30 10:24:48;;;;;;;5.80;5.23;;;29.10;96.30;;;;;;5051752;28;20451;-71
2021/07/30 10:27:18;;;;;;;5.70;5.10;;;28.70;96.80;;;;;;5051381;28;20480;-71
2021/07/30 10:30:01;;;;;;;6.43;5.83;;;28.40;97.70;;;;;;5050653;28;20985;-70
2021/07/30 10:32:44;;;;;;;7.30;5.43;;;27.90;98.10;;;;;;5051411;28;20444;-69
2021/07/30 10:35:14;;;;;;;6.33;5.73;;;27.50;98.60;;;;;;5051401;28;20459;-69
2021/07/30 10:37:43;;;;;;;5.87;5.30;;;27.50;98.00;;;;;;5052767;28;20450;-69
2021/07/30 10:40:14;;;;;;;7.10;6.30;;;27.30;97.70;;;;;;5057412;28;20486;-69
2021/07/30 10:43:04;;;;;;;5.83;5.27;;;27.20;97.70;;;;;;5058308;28;20955;-70
2021/07/30 10:45:32;;;;;;;5.70;5.20;;;27.20;96.80;;;;;;5059414;28;20443;-69
2021/07/30 10:48:32;;;;;;;6.37;5.77;;;27.40;97.20;;;;;;5070275;28;20564;-70
2021/07/30 10:51:01;;;;;;;5.83;5.10;;;27.50;97.50;;;;;;5029982;28;20449;-70
2021/07/30 10:53:47;;;;;;;6.60;5.47;;;27.70;97.80;;;;;;5042178;28;20451;-69
2021/07/30 10:56:49;;;;;;;8.37;5.37;;;27.50;97.40;;;;;;5053613;28;20447;-69
2021/07/30 10:59:21;;;;;;;7.10;5.30;;;27.60;97.70;;;;;;5049834;28;20465;-69
2021/07/30 11:01:56;;;;;;;5.87;5.27;;;27.50;98.00;;;;;;5049471;28;21010;-69
2021/07/30 11:04:23;;;;;;;9.10;6.80;;;27.60;97.20;;;;;;5048240;28;20448;-69
2021/07/30 11:07:03;;;;;;;5.77;4.50;;;27.60;97.40;;;;;;5049737;28;20451;-69
2021/07/30 11:09:40;;;;;;;6.03;5.43;;;28.20;98.00;;;;;;5049650;28;20550;-69
2021/07/30 11:12:13;;;;;;;8.17;5.07;;;28.60;96.20;;;;;;5049044;28;20455;-69
2021/07/30 11:14:45;;;;;;;6.53;5.70;;;28.90;96.20;;;;;;5050078;28;20956;-69
2021/07/30 11:17:13;;;;;;;6.00;4.70;;;29.30;95.40;;;;;;5055631;28;20490;-69
2021/07/30 11:19:41;;;;;;;9.03;4.97;;;29.80;95.40;;;;;;5052488;28;20542;-69
2021/07/30 11:22:11;;;;;;;6.40;5.80;;;30.70;95.70;;;;;;5049562;28;20444;-69
2021/07/30 11:24:40;;;;;;;7.43;4.80;;;31.80;94.30;;;;;;5049771;28;20462;-69
2021/07/30 11:27:08;;;;;;;5.70;5.20;;;32.60;92.10;;;;;;5046013;28;20452;-69
2021/07/30 11:29:35;;;;;;;4.80;4.40;;;33.20;89.10;;;;;;5030725;28;20469;-69
2021/07/30 11:32:05;;;;;;;5.67;5.07;;;32.90;88.40;;;;;;5028568;28;20480;-70
2021/07/30 11:34:34;;;;;;;7.17;4.63;;;32.70;87.70;;;;;;5030921;28;20861;-70
2021/07/30 11:37:03;;;;;;;7.00;5.50;;;31.70;89.40;;;;;;5030136;28;20453;-70
2021/07/30 11:39:32;;;;;;;6.23;5.60;;;31.30;90.30;;;;;;5029081;28;20563;-69
2021/07/30 11:41:59;;;;;;;6.47;5.77;;;30.60;91.50;;;;;;5029760;28;20480;-70
2021/07/30 11:44:26;;;;;;;7.13;5.33;;;30.60;92.50;;;;;;5029579;28;20460;-71
2021/07/30 11:46:55;;;;;;;5.90;5.27;;;30.70;90.90;;;;;;5031118;28;20457;-69
2021/07/30 11:49:36;;;;;;;5.93;5.33;;;30.90;92.60;;;;;;5030230;28;20580;-70
2021/07/30 11:52:06;;;;;;;6.37;5.77;;;30.70;92.20;;;;;;5029861;28;20520;-70
2021/07/30 11:54:34;;;;;;;7.13;5.87;;;30.50;90.90;;;;;;5031047;28;20885;-71
2021/07/30 11:57:01;;;;;;;6.10;5.27;;;30.40;91.00;;;;;;5030730;28;20572;-70
2021/07/30 11:59:43;;;;;;;7.87;5.90;;;31.00;94.30;;;;;;5040892;28;20837;-71
2021/07/30 12:02:10;;;;;;;6.40;5.30;;;32.20;92.80;;;;;;5059754;28;20447;-71
2021/07/30 12:04:49;;;;;;;6.10;4.97;;;33.60;91.60;;;;;;5057923;28;20519;-70
2021/07/30 12:07:18;;;;;;;5.70;5.20;;;34.60;83.60;;;;;;5050413;28;20458;-71
2021/07/30 12:09:47;;;;;;;6.27;4.43;;;34.80;79.40;;;;;;5050303;28;20953;-71
2021/07/30 12:12:15;;;;;;;5.23;4.73;;;34.30;78.50;;;;;;5060170;28;20836;-70
2021/07/30 12:14:48;;;;;;;5.90;5.30;;;34.40;86.10;;;;;;5058660;28;20818;-71
2021/07/30 12:17:15;;;;;;;6.30;5.33;;;35.00;79.00;;;;;;5052339;28;21162;-70
2021/07/30 12:19:43;;;;;;;8.40;4.60;;;34.70;77.90;;;;;;5058469;28;20468;-71
2021/07/30 12:22:11;;;;;;;6.67;5.23;;;34.10;79.00;;;;;;5051260;28;20456;-70
2021/07/30 12:24:48;;;;;;;6.20;5.50;;;33.90;78.60;;;;;;5068300;28;20534;-70
2021/07/30 12:27:19;;;;;;;5.97;5.40;;;33.80;84.10;;;;;;5057495;28;20444;-70
2021/07/30 12:29:47;;;;;;;6.27;5.67;;;33.50;81.50;;;;;;5055341;28;20470;-70
2021/07/30 12:32:16;;;;;;;5.70;5.20;;;32.60;82.60;;;;;;5060522;28;20451;-71
2021/07/30 12:34:58;;;;;;;6.53;5.60;;;31.60;87.10;;;;;;5057824;28;20802;-70
2021/07/30 12:37:26;;;;;;;6.20;5.60;;;30.70;90.10;;;;;;5055485;28;20439;-71
2021/07/30 12:39:55;;;;;;;6.83;5.57;;;30.00;90.90;;;;;;5059533;28;20568;-71
2021/07/30 12:42:23;;;;;;;5.57;5.00;;;29.30;90.70;;;;;;5066447;28;20822;-71
2021/07/30 12:45:10;;;;;;;6.00;5.40;;;29.60;91.90;;;;;;5059219;28;20968;-70
2021/07/30 12:47:39;;;;;;;6.07;5.47;;;29.80;92.00;;;;;;5060485;28;20528;-69
2021/07/30 12:50:31;;;;;;;5.97;5.37;;;30.20;89.70;;;;;;5053974;28;20487;-70